createdAt,value
2022-09-12T00:00:29.587Z,98561.25
2022-09-12T00:01:31.649Z,98562.00
2022-09-12T00:02:33.267Z,98563.09
2022-09-12T00:03:35.670Z,98560.06
2022-09-12T00:04:37.911Z,98563.97
2022-09-12T00:05:44.538Z,98562.44
2022-09-12T00:06:46.426Z,98560.94
2022-09-12T00:07:47.999Z,98552.59
2022-09-12T00:08:49.711Z,98563.81
2022-09-12T00:09:51.171Z,98560.34
2022-09-12T00:10:52.747Z,98558.34
2022-09-12T00:11:54.618Z,98559.81
2022-09-12T00:12:56.219Z,98551.50
2022-09-12T00:14:02.599Z,98557.59
2022-09-12T00:15:05.320Z,98554.28
2022-09-12T00:16:19.481Z,98546.00
2022-09-12T00:17:21.308Z,98548.63
2022-09-12T00:18:22.778Z,98554.28
2022-09-12T00:19:24.494Z,98558.41
2022-09-12T00:20:25.937Z,98550.47
2022-09-12T00:21:28.037Z,98553.00
2022-09-12T00:22:29.786Z,98560.91
2022-09-12T00:23:33.062Z,98557.50
2022-09-12T00:24:34.532Z,98550.78
2022-09-12T00:25:42.364Z,98553.09
2022-09-12T00:26:43.794Z,98550.72
2022-09-12T00:27:45.541Z,98550.63
2022-09-12T00:28:47.722Z,98562.22
2022-09-12T00:29:49.243Z,98558.69
2022-09-12T00:30:50.720Z,98556.75
2022-09-12T00:31:52.208Z,98552.94
2022-09-12T00:32:54.796Z,98552.13
2022-09-12T00:34:00.655Z,98561.84
2022-09-12T00:35:02.850Z,98548.53
2022-09-12T00:36:14.764Z,98548.72
2022-09-12T00:37:16.165Z,98547.81
2022-09-12T00:38:17.984Z,98546.31
2022-09-12T00:39:19.820Z,98552.34
2022-09-12T00:40:21.243Z,98551.09
2022-09-12T00:41:29.689Z,98554.34
2022-09-12T00:42:31.434Z,98561.72
2022-09-12T00:43:34.831Z,98558.63
2022-09-12T00:44:39.033Z,98556.81
2022-09-12T00:45:42.545Z,98555.44
2022-09-12T00:46:46.001Z,98547.63
2022-09-12T00:47:47.958Z,98555.34
2022-09-12T00:48:56.831Z,98548.63
2022-09-12T00:50:05.097Z,98544.09
2022-09-12T00:51:06.996Z,98540.03
2022-09-12T00:52:09.830Z,98539.66
2022-09-12T00:53:12.748Z,98548.41
2022-09-12T00:54:16.903Z,98543.50
2022-09-12T00:55:26.380Z,98544.47
2022-09-12T00:56:28.550Z,98546.66
2022-09-12T00:57:35.628Z,98538.25
2022-09-12T00:58:43.085Z,98534.78
2022-09-12T00:59:54.850Z,98529.84
2022-09-12T01:00:58.947Z,98534.38
2022-09-12T01:02:00.906Z,98527.47
2022-09-12T01:03:09.071Z,98533.03
2022-09-12T01:04:13.388Z,98525.47
2022-09-12T01:05:16.107Z,98526.34
2022-09-12T01:06:28.816Z,98530.50
2022-09-12T01:07:30.351Z,98533.72
2022-09-12T01:08:33.304Z,98531.78
2022-09-12T01:09:36.053Z,98527.50
2022-09-12T01:10:40.348Z,98521.03
2022-09-12T01:11:42.654Z,98530.34
2022-09-12T01:12:44.702Z,98530.94
2022-09-12T01:13:47.187Z,98526.16
2022-09-12T01:14:48.730Z,98534.75
2022-09-12T01:15:50.299Z,98532.81
2022-09-12T01:16:51.831Z,98528.34
2022-09-12T01:18:08.695Z,98532.34
2022-09-12T01:19:53.199Z,98526.59
2022-09-12T01:21:01.323Z,98527.09
2022-09-12T01:22:33.370Z,98518.91
2022-09-12T01:24:13.638Z,98519.78
2022-09-12T01:25:49.108Z,98513.31
2022-09-12T01:27:01.842Z,98514.06
2022-09-12T01:28:37.459Z,98522.38
2022-09-12T01:29:59.250Z,98513.13
2022-09-12T01:31:17.264Z,98510.09
2022-09-12T01:32:38.002Z,98508.84
2022-09-12T01:34:02.840Z,98519.00
2022-09-12T01:35:23.403Z,98511.56
2022-09-12T01:36:25.846Z,98513.44
2022-09-12T01:37:43.018Z,98513.63
2022-09-12T01:38:49.958Z,98511.13
2022-09-12T01:40:16.883Z,98513.09
2022-09-12T01:41:26.387Z,98512.25
2022-09-12T01:43:01.905Z,98508.09
2022-09-12T01:44:36.961Z,98510.16
2022-09-12T01:45:47.858Z,98509.31
2022-09-12T01:47:19.461Z,98512.31
2022-09-12T01:48:33.512Z,98517.91
2022-09-12T01:49:52.408Z,98514.47
2022-09-12T01:51:11.230Z,98518.00
2022-09-12T01:52:23.012Z,98519.72
2022-09-12T01:53:30.941Z,98511.31
2022-09-12T01:55:00.812Z,98506.03
2022-09-12T01:56:15.504Z,98498.34
2022-09-12T01:57:43.760Z,98499.59
2022-09-12T01:58:51.333Z,98495.78
2022-09-12T01:59:59.269Z,98499.91
2022-09-12T02:01:13.192Z,98499.84
2022-09-12T02:02:38.557Z,98503.66
2022-09-12T02:03:48.329Z,98497.16
2022-09-12T02:04:56.894Z,98503.00
2022-09-12T02:06:08.452Z,98494.53
2022-09-12T02:07:29.389Z,98498.94
2022-09-12T02:08:42.789Z,98496.81
2022-09-12T02:09:52.142Z,98492.59
2022-09-12T02:10:59.579Z,98485.13
2022-09-12T02:12:01.659Z,98495.13
2022-09-12T02:13:13.213Z,98490.75
2022-09-12T02:14:28.574Z,98491.19
2022-09-12T02:15:38.467Z,98490.22
2022-09-12T02:17:18.411Z,98495.00
2022-09-12T02:18:21.258Z,98486.75
2022-09-12T02:19:27.874Z,98494.72
2022-09-12T02:20:47.421Z,98489.00
2022-09-12T02:21:55.548Z,98490.72
2022-09-12T02:22:58.257Z,98497.22
2022-09-12T02:24:02.971Z,98493.50
2022-09-12T02:25:09.411Z,98492.66
2022-09-12T02:26:20.491Z,98495.19
2022-09-12T02:27:26.844Z,98486.25
2022-09-12T02:28:33.677Z,98487.06
2022-09-12T02:29:35.291Z,98484.47
2022-09-12T02:30:59.922Z,98487.09
2022-09-12T02:32:09.390Z,98490.94
2022-09-12T02:33:23.739Z,98490.16
2022-09-12T02:34:51.412Z,98482.78
2022-09-12T02:36:03.936Z,98487.41
2022-09-12T02:37:11.410Z,98480.50
2022-09-12T02:38:28.566Z,98484.38
2022-09-12T02:39:30.059Z,98483.50
2022-09-12T02:40:33.150Z,98483.34
2022-09-12T02:41:34.982Z,98474.94
2022-09-12T02:42:37.450Z,98482.44
2022-09-12T02:43:39.096Z,98483.94
2022-09-12T02:44:41.575Z,98482.34
2022-09-12T02:45:43.292Z,98481.59
2022-09-12T02:46:50.234Z,98478.53
2022-09-12T02:48:09.907Z,98481.66
2022-09-12T02:49:11.532Z,98482.81
2022-09-12T02:50:13.732Z,98482.41
2022-09-12T02:51:18.295Z,98482.72
2022-09-12T02:52:23.189Z,98481.53
2022-09-12T02:53:27.044Z,98483.41
2022-09-12T02:54:30.322Z,98483.50
2022-09-12T02:55:34.181Z,98482.75
2022-09-12T02:56:36.892Z,98482.34
2022-09-12T02:57:38.750Z,98477.22
2022-09-12T02:58:40.378Z,98477.66
2022-09-12T02:59:42.233Z,98486.97
2022-09-12T03:00:58.637Z,98484.75
2022-09-12T03:02:37.786Z,98486.69
2022-09-12T03:03:48.299Z,98483.19
2022-09-12T03:05:15.994Z,98480.34
2022-09-12T03:06:43.597Z,98488.38
2022-09-12T03:08:07.846Z,98487.00
2022-09-12T03:09:36.654Z,98478.06
2022-09-12T03:11:03.792Z,98491.84
2022-09-12T03:12:27.628Z,98489.38
2022-09-12T03:13:44.560Z,98483.22
2022-09-12T03:15:19.489Z,98481.81
2022-09-12T03:16:52.213Z,98480.53
2022-09-12T03:18:06.489Z,98477.28
2022-09-12T03:19:32.952Z,98471.16
2022-09-12T03:21:04.231Z,98476.63
2022-09-12T03:22:23.739Z,98474.94
2022-09-12T03:24:01.459Z,98473.47
2022-09-12T03:25:06.142Z,98476.94
2022-09-12T03:26:16.010Z,98477.06
2022-09-12T03:27:26.222Z,98471.94
2022-09-12T03:28:28.743Z,98470.38
2022-09-12T03:29:31.584Z,98474.69
2022-09-12T03:30:41.847Z,98471.22
2022-09-12T03:31:57.799Z,98469.34
2022-09-12T03:32:59.773Z,98468.59
2022-09-12T03:34:01.262Z,98466.66
2022-09-12T03:35:04.234Z,98472.41
2022-09-12T03:36:05.997Z,98466.38
2022-09-12T03:37:07.555Z,98475.88
2022-09-12T03:38:10.088Z,98470.47
2022-09-12T03:39:11.563Z,98477.22
2022-09-12T03:40:13.255Z,98477.69
2022-09-12T03:41:14.853Z,98477.47
2022-09-12T03:42:16.445Z,98478.84
2022-09-12T03:43:18.244Z,98472.41
2022-09-12T03:44:20.384Z,98478.66
2022-09-12T03:45:22.259Z,98480.84
2022-09-12T03:46:23.806Z,98481.31
2022-09-12T03:47:25.603Z,98483.84
2022-09-12T03:48:27.119Z,98477.84
2022-09-12T03:49:28.578Z,98486.19
2022-09-12T03:50:30.099Z,98490.75
2022-09-12T03:51:31.537Z,98482.91
2022-09-12T03:52:33.730Z,98483.66
2022-09-12T03:53:35.722Z,98487.50
2022-09-12T03:54:37.168Z,98482.53
2022-09-12T03:55:39.432Z,98480.59
2022-09-12T03:56:41.591Z,98481.94
2022-09-12T03:57:44.302Z,98486.41
2022-09-12T03:58:45.875Z,98478.13
2022-09-12T03:59:49.639Z,98483.41
2022-09-12T04:00:51.232Z,98482.75
2022-09-12T04:01:52.698Z,98478.44
2022-09-12T04:02:56.674Z,98475.19
2022-09-12T04:04:00.900Z,98479.03
2022-09-12T04:05:02.835Z,98470.66
2022-09-12T04:06:04.835Z,98483.69
2022-09-12T04:07:06.410Z,98476.84
2022-09-12T04:08:08.231Z,98477.06
2022-09-12T04:09:09.748Z,98480.31
2022-09-12T04:10:11.283Z,98473.44
2022-09-12T04:11:14.699Z,98473.75
2022-09-12T04:12:16.224Z,98475.41
2022-09-12T04:13:18.000Z,98470.38
2022-09-12T04:14:19.428Z,98474.00
2022-09-12T04:15:20.913Z,98474.06
2022-09-12T04:16:22.559Z,98478.56
2022-09-12T04:17:24.147Z,98485.31
2022-09-12T04:18:26.269Z,98475.75
2022-09-12T04:19:27.948Z,98481.38
2022-09-12T04:20:29.613Z,98477.28
2022-09-12T04:21:31.358Z,98476.75
2022-09-12T04:22:33.374Z,98480.13
2022-09-12T04:23:35.369Z,98482.41
2022-09-12T04:24:36.860Z,98483.50
2022-09-12T04:25:38.295Z,98488.03
2022-09-12T04:26:39.770Z,98484.22
2022-09-12T04:27:41.585Z,98487.53
2022-09-12T04:28:43.897Z,98486.84
2022-09-12T04:29:45.445Z,98492.94
2022-09-12T04:30:46.906Z,98489.38
2022-09-12T04:31:48.710Z,98490.44
2022-09-12T04:32:50.168Z,98485.97
2022-09-12T04:33:56.881Z,98490.63
2022-09-12T04:34:58.452Z,98491.25
2022-09-12T04:36:07.957Z,98481.34
2022-09-12T04:37:11.665Z,98491.63
2022-09-12T04:38:13.116Z,98482.81
2022-09-12T04:39:14.932Z,98482.13
2022-09-12T04:40:16.483Z,98480.47
2022-09-12T04:41:23.831Z,98481.81
2022-09-12T04:42:25.312Z,98483.34
2022-09-12T04:43:27.010Z,98476.53
2022-09-12T04:44:29.154Z,98478.34
2022-09-12T04:45:30.712Z,98480.28
2022-09-12T04:46:35.000Z,98477.28
2022-09-12T04:47:36.448Z,98475.09
2022-09-12T04:48:38.399Z,98481.38
2022-09-12T04:49:40.179Z,98483.34
2022-09-12T04:50:41.608Z,98478.59
2022-09-12T04:51:43.894Z,98478.66
2022-09-12T04:52:55.204Z,98481.81
2022-09-12T04:54:01.824Z,98475.88
2022-09-12T04:55:03.701Z,98483.34
2022-09-12T04:56:07.280Z,98489.97
2022-09-12T04:57:08.708Z,98480.34
2022-09-12T04:58:10.166Z,98489.19
2022-09-12T04:59:14.068Z,98482.25
2022-09-12T05:00:15.670Z,98481.25
2022-09-12T05:01:19.828Z,98487.13
2022-09-12T05:02:21.371Z,98486.38
2022-09-12T05:03:22.833Z,98486.28
2022-09-12T05:04:24.624Z,98484.31
2022-09-12T05:05:26.179Z,98488.66
2022-09-12T05:06:31.426Z,98490.25
2022-09-12T05:07:33.514Z,98497.97
2022-09-12T05:08:35.555Z,98494.13
2022-09-12T05:09:37.350Z,98491.13
2022-09-12T05:10:38.783Z,98493.88
2022-09-12T05:13:04.579Z,98490.69
2022-09-12T05:14:06.173Z,98496.91
2022-09-12T05:15:08.189Z,98491.41
2022-09-12T05:16:11.814Z,98497.00
2022-09-12T05:17:13.273Z,98493.19
2022-09-12T05:18:14.677Z,98491.66
2022-09-12T05:19:16.183Z,98493.91
2022-09-12T05:20:17.930Z,98498.00
2022-09-12T05:21:21.476Z,98487.44
2022-09-12T05:22:22.920Z,98497.81
2022-09-12T05:23:24.816Z,98506.31
2022-09-12T05:24:26.733Z,98504.91
2022-09-12T05:25:28.484Z,98503.97
2022-09-12T05:26:29.976Z,98504.13
2022-09-12T05:27:31.439Z,98507.34
2022-09-12T05:28:35.661Z,98505.69
2022-09-12T05:29:37.075Z,98510.78
2022-09-12T05:30:38.854Z,98513.66
2022-09-12T05:31:40.337Z,98512.94
2022-09-12T05:32:41.783Z,98505.81
2022-09-12T05:33:45.340Z,98513.72
2022-09-12T05:34:47.395Z,98510.91
2022-09-12T05:35:53.117Z,98512.19
2022-09-12T05:36:54.524Z,98511.47
2022-09-12T05:37:56.141Z,98514.00
2022-09-12T05:38:59.688Z,98503.53
2022-09-12T05:40:05.133Z,98508.88
2022-09-12T05:41:17.060Z,98510.91
2022-09-12T05:42:19.733Z,98517.91
2022-09-12T05:43:21.261Z,98515.72
2022-09-12T05:44:22.684Z,98515.69
2022-09-12T05:45:24.140Z,98516.84
2022-09-12T05:46:31.775Z,98519.28
2022-09-12T05:47:33.219Z,98518.09
2022-09-12T05:48:36.886Z,98513.44
2022-09-12T05:49:38.467Z,98508.09
2022-09-12T05:50:39.912Z,98511.56
2022-09-12T05:51:44.253Z,98512.38
2022-09-12T05:52:45.967Z,98512.63
2022-09-12T05:53:50.893Z,98515.38
2022-09-12T05:54:52.358Z,98516.97
2022-09-12T05:56:11.253Z,98518.88
2022-09-12T05:57:12.698Z,98513.38
2022-09-12T05:58:14.727Z,98510.84
2022-09-12T05:59:19.347Z,98517.50
2022-09-12T06:00:20.992Z,98517.44
2022-09-12T06:01:22.798Z,98509.50
2022-09-12T06:02:24.247Z,98515.63
2022-09-12T06:03:25.720Z,98517.44
2022-09-12T06:04:28.067Z,98517.03
2022-09-12T06:05:29.528Z,98516.75
2022-09-12T06:06:32.707Z,98523.09
2022-09-12T06:07:35.705Z,98521.25
2022-09-12T06:08:37.524Z,98525.84
2022-09-12T06:09:38.990Z,98524.72
2022-09-12T06:10:40.404Z,98525.19
2022-09-12T06:11:42.459Z,98526.28
2022-09-12T06:12:43.928Z,98531.44
2022-09-12T06:13:45.449Z,98524.44
2022-09-12T06:14:47.678Z,98522.59
2022-09-12T06:15:49.066Z,98521.53
2022-09-12T06:16:50.893Z,98521.91
2022-09-12T06:17:52.458Z,98526.00
2022-09-12T06:18:56.518Z,98532.69
2022-09-12T06:19:57.928Z,98528.22
2022-09-12T06:21:05.397Z,98531.41
2022-09-12T06:22:06.906Z,98531.88
2022-09-12T06:23:08.349Z,98528.84
2022-09-12T06:24:09.890Z,98535.97
2022-09-12T06:25:11.311Z,98531.94
2022-09-12T06:26:13.489Z,98533.59
2022-09-12T06:27:15.358Z,98528.63
2022-09-12T06:28:16.918Z,98540.34
2022-09-12T06:29:19.329Z,98533.53
2022-09-12T06:30:25.306Z,98534.66
2022-09-12T06:31:30.007Z,98537.69
2022-09-12T06:32:31.770Z,98534.34
2022-09-12T06:33:38.058Z,98533.34
2022-09-12T06:34:39.560Z,98530.22
2022-09-12T06:35:41.400Z,98536.47
2022-09-12T06:36:46.217Z,98533.59
2022-09-12T06:37:48.382Z,98537.00
2022-09-12T06:38:56.179Z,98539.31
2022-09-12T06:39:57.702Z,98534.75
2022-09-12T06:41:07.138Z,98534.44
2022-09-12T06:42:09.018Z,98531.00
2022-09-12T06:43:13.735Z,98544.72
2022-09-12T06:44:28.989Z,98538.28
2022-09-12T06:45:30.455Z,98533.75
2022-09-12T06:46:32.301Z,98532.56
2022-09-12T06:47:33.707Z,98525.56
2022-09-12T06:48:39.605Z,98517.53
2022-09-12T06:49:43.095Z,98525.28
2022-09-12T06:50:56.144Z,98522.69
2022-09-12T06:51:57.928Z,98520.00
2022-09-12T06:52:59.368Z,98524.56
2022-09-12T06:54:00.997Z,98528.72
2022-09-12T06:55:02.472Z,98522.75
2022-09-12T06:56:07.440Z,98527.66
2022-09-12T06:57:09.299Z,98525.31
2022-09-12T06:58:10.910Z,98528.44
2022-09-12T06:59:12.700Z,98532.59
2022-09-12T07:00:14.479Z,98530.06
2022-09-12T07:01:27.719Z,98526.31
2022-09-12T07:02:29.187Z,98524.75
2022-09-12T07:03:31.052Z,98529.31
2022-09-12T07:04:36.691Z,98538.03
2022-09-12T07:05:38.124Z,98532.28
2022-09-12T07:06:41.963Z,98532.28
2022-09-12T07:07:43.415Z,98535.69
2022-09-12T07:08:45.571Z,98533.03
2022-09-12T07:09:47.052Z,98527.41
2022-09-12T07:10:48.593Z,98526.34
2022-09-12T07:11:50.356Z,98541.53
2022-09-12T07:12:54.786Z,98532.44
2022-09-12T07:13:57.814Z,98530.84
2022-09-12T07:14:59.244Z,98531.56
2022-09-12T07:16:05.508Z,98535.75
2022-09-12T07:17:07.786Z,98531.59
2022-09-12T07:18:10.907Z,98538.88
2022-09-12T07:19:12.589Z,98532.72
2022-09-12T07:20:14.090Z,98530.50
2022-09-12T07:21:15.584Z,98535.44
2022-09-12T07:22:17.343Z,98532.44
2022-09-12T07:23:19.090Z,98534.88
2022-09-12T07:24:20.563Z,98530.81
2022-09-12T07:25:21.976Z,98536.53
2022-09-12T07:26:25.034Z,98530.44
2022-09-12T07:27:26.479Z,98525.44
2022-09-12T07:28:30.602Z,98534.88
2022-09-12T07:29:37.083Z,98528.47
2022-09-12T07:30:39.160Z,98525.56
2022-09-12T07:31:41.000Z,98528.75
2022-09-12T07:32:42.425Z,98528.47
2022-09-12T07:33:44.800Z,98525.88
2022-09-12T07:34:46.346Z,98533.44
2022-09-12T07:35:48.193Z,98525.88
2022-09-12T07:36:49.967Z,98528.91
2022-09-12T07:37:51.415Z,98526.28
2022-09-12T07:38:57.698Z,98530.00
2022-09-12T07:39:59.869Z,98522.03
2022-09-12T07:41:04.749Z,98525.78
2022-09-12T07:42:07.336Z,98534.50
2022-09-12T07:43:09.024Z,98524.72
2022-09-12T07:44:10.527Z,98532.41
2022-09-12T07:45:12.971Z,98531.19
2022-09-12T07:46:14.974Z,98525.41
2022-09-12T07:47:16.808Z,98530.66
2022-09-12T07:48:18.222Z,98530.66
2022-09-12T07:49:22.595Z,98532.28
2022-09-12T07:50:24.305Z,98536.09
2022-09-12T07:51:27.643Z,98531.53
2022-09-12T07:52:29.467Z,98538.34
2022-09-12T07:53:33.167Z,98540.31
2022-09-12T07:54:34.674Z,98534.34
2022-09-12T07:55:36.100Z,98539.25
2022-09-12T07:56:39.380Z,98536.63
2022-09-12T07:57:41.029Z,98538.13
2022-09-12T07:58:43.920Z,98541.47
2022-09-12T07:59:53.313Z,98539.16
2022-09-12T08:00:55.960Z,98546.34
2022-09-12T08:01:57.861Z,98538.81
2022-09-12T08:02:59.356Z,98538.84
2022-09-12T08:04:01.629Z,98531.50
2022-09-12T08:05:03.263Z,98542.53
2022-09-12T08:06:16.416Z,98548.28
2022-09-12T08:07:19.490Z,98549.88
2022-09-12T08:08:21.209Z,98545.00
2022-09-12T08:09:22.638Z,98546.63
2022-09-12T08:10:24.131Z,98553.03
2022-09-12T08:11:28.413Z,98556.03
2022-09-12T08:12:31.477Z,98550.31
2022-09-12T08:13:34.533Z,98552.59
2022-09-12T08:14:35.969Z,98555.66
2022-09-12T08:15:37.458Z,98554.13
2022-09-12T08:16:39.327Z,98548.06
2022-09-12T08:17:41.426Z,98554.19
2022-09-12T08:18:42.863Z,98554.22
2022-09-12T08:19:44.970Z,98553.09
2022-09-12T08:20:46.461Z,98547.44
2022-09-12T08:21:48.311Z,98553.53
2022-09-12T08:22:49.781Z,98546.72
2022-09-12T08:23:59.096Z,98545.22
2022-09-12T08:25:00.548Z,98542.97
2022-09-12T08:26:06.132Z,98548.28
2022-09-12T08:27:08.606Z,98548.28
2022-09-12T08:28:10.056Z,98542.97
2022-09-12T08:29:11.913Z,98553.97
2022-09-12T08:30:14.181Z,98544.13
2022-09-12T08:31:18.588Z,98557.41
2022-09-12T08:32:20.541Z,98553.59
2022-09-12T08:33:22.219Z,98550.56
2022-09-12T08:34:25.095Z,98553.97
2022-09-12T08:35:27.007Z,98551.66
2022-09-12T08:36:29.636Z,98550.16
2022-09-12T08:37:31.770Z,98552.06
2022-09-12T08:38:34.567Z,98547.09
2022-09-12T08:39:36.056Z,98543.66
2022-09-12T08:40:59.296Z,98540.56
2022-09-12T08:42:06.844Z,98538.69
2022-09-12T08:43:27.690Z,98540.19
2022-09-12T08:44:32.214Z,98531.81
2022-09-12T08:45:38.754Z,98537.13
2022-09-12T08:46:47.018Z,98537.53
2022-09-12T08:47:49.580Z,98532.56
2022-09-12T08:48:51.892Z,98538.28
2022-09-12T08:50:04.793Z,98535.56
2022-09-12T08:51:12.291Z,98535.97
2022-09-12T08:52:26.363Z,98530.19
2022-09-12T08:53:30.183Z,98537.47
2022-09-12T08:54:33.016Z,98537.81
2022-09-12T08:55:40.145Z,98535.91
2022-09-12T08:56:41.611Z,98535.22
2022-09-12T08:57:43.352Z,98531.75
2022-09-12T08:58:46.103Z,98533.66
2022-09-12T08:59:48.424Z,98532.91
2022-09-12T09:01:01.803Z,98530.59
2022-09-12T09:02:16.277Z,98531.38
2022-09-12T09:03:45.046Z,98532.09
2022-09-12T09:05:01.526Z,98525.72
2022-09-12T09:06:18.488Z,98532.56
2022-09-12T09:07:23.633Z,98531.91
2022-09-12T09:08:27.794Z,98534.97
2022-09-12T09:09:53.768Z,98533.41
2022-09-12T09:11:26.997Z,98535.34
2022-09-12T09:13:03.123Z,98540.66
2022-09-12T09:14:49.222Z,98534.97
2022-09-12T09:16:08.103Z,98530.41
2022-09-12T09:17:20.197Z,98531.91
2022-09-12T09:18:29.008Z,98532.28
2022-09-12T09:19:50.805Z,98529.94
2022-09-12T09:21:22.007Z,98526.44
2022-09-12T09:22:37.135Z,98531.41
2022-09-12T09:23:47.400Z,98526.84
2022-09-12T09:24:53.296Z,98532.91
2022-09-12T09:26:14.648Z,98527.22
2022-09-12T09:27:40.852Z,98526.47
2022-09-12T09:28:50.224Z,98523.38
2022-09-12T09:29:55.704Z,98519.53
2022-09-12T09:30:57.894Z,98526.28
2022-09-12T09:32:01.114Z,98521.31
2022-09-12T09:33:05.125Z,98526.56
2022-09-12T09:34:15.505Z,98520.91
2022-09-12T09:35:21.906Z,98519.03
2022-09-12T09:36:38.914Z,98522.38
2022-09-12T09:37:44.725Z,98511.31
2022-09-12T09:38:54.196Z,98507.16
2022-09-12T09:40:20.360Z,98513.91
2022-09-12T09:42:01.512Z,98508.47
2022-09-12T09:43:12.289Z,98516.00
2022-09-12T09:44:14.171Z,98511.34
2022-09-12T09:45:19.643Z,98514.72
2022-09-12T09:46:21.102Z,98509.69
2022-09-12T09:47:22.768Z,98507.75
2022-09-12T09:48:29.769Z,98508.50
2022-09-12T09:49:34.419Z,98504.66
2022-09-12T09:50:36.992Z,98506.56
2022-09-12T09:51:40.749Z,98510.47
2022-09-12T09:52:43.505Z,98501.66
2022-09-12T09:54:01.492Z,98501.66
2022-09-12T09:55:03.480Z,98500.91
2022-09-12T09:56:15.365Z,98503.13
2022-09-12T09:57:35.105Z,98496.19
2022-09-12T09:58:37.132Z,98498.44
2022-09-12T09:59:38.576Z,98493.06
2022-09-12T10:00:40.670Z,98488.03
2022-09-12T10:01:54.847Z,98497.88
2022-09-12T10:03:14.022Z,98490.69
2022-09-12T10:04:20.304Z,98494.47
2022-09-12T10:05:22.234Z,98492.94
2022-09-12T10:06:30.870Z,98497.44
2022-09-12T10:07:32.442Z,98494.28
2022-09-12T10:08:36.616Z,98487.75
2022-09-12T10:09:38.719Z,98488.47
2022-09-12T10:10:53.610Z,98484.94
2022-09-12T10:11:57.322Z,98489.78
2022-09-12T10:13:20.917Z,98490.47
2022-09-12T10:14:32.153Z,98493.50
2022-09-12T10:15:34.682Z,98493.06
2022-09-12T10:16:52.678Z,98498.75
2022-09-12T10:17:58.796Z,98490.66
2022-09-12T10:19:02.953Z,98491.69
2022-09-12T10:20:20.568Z,98489.75
2022-09-12T10:21:32.182Z,98484.31
2022-09-12T10:22:33.753Z,98488.63
2022-09-12T10:23:37.587Z,98491.25
2022-09-12T10:24:58.622Z,98490.91
2022-09-12T10:26:03.813Z,98483.72
2022-09-12T10:27:20.529Z,98484.63
2022-09-12T10:28:33.146Z,98483.72
2022-09-12T10:29:59.299Z,98483.44
2022-09-12T10:31:02.635Z,98480.56
2022-09-12T10:32:08.267Z,98484.28
2022-09-12T10:33:12.833Z,98483.47
2022-09-12T10:34:44.679Z,98486.47
2022-09-12T10:35:49.868Z,98487.25
2022-09-12T10:37:00.401Z,98484.16
2022-09-12T10:38:06.274Z,98479.41
2022-09-12T10:39:18.615Z,98481.97
2022-09-12T10:40:28.743Z,98479.25
2022-09-12T10:41:41.383Z,98488.59
2022-09-12T10:42:50.291Z,98484.88
2022-09-12T10:43:51.714Z,98480.06
2022-09-12T10:44:54.689Z,98480.69
2022-09-12T10:45:58.876Z,98477.13
2022-09-12T10:47:19.973Z,98479.47
2022-09-12T10:48:29.363Z,98478.16
2022-09-12T10:49:31.827Z,98476.91
2022-09-12T10:50:39.367Z,98476.09
2022-09-12T10:51:41.119Z,98476.91
2022-09-12T10:52:42.543Z,98470.47
2022-09-12T10:53:46.798Z,98470.69
2022-09-12T10:54:48.945Z,98463.47
2022-09-12T10:56:03.287Z,98466.53
2022-09-12T10:57:21.223Z,98465.25
2022-09-12T10:58:53.717Z,98471.56
2022-09-12T11:00:19.850Z,98463.31
2022-09-12T11:01:36.898Z,98471.50
2022-09-12T11:03:05.329Z,98460.66
2022-09-12T11:04:26.520Z,98474.69
2022-09-12T11:05:54.330Z,98473.47
2022-09-12T11:07:07.085Z,98468.03
2022-09-12T11:08:21.081Z,98469.25
2022-09-12T11:09:46.308Z,98470.03
2022-09-12T11:10:54.734Z,98468.41
2022-09-12T11:12:19.993Z,98465.56
2022-09-12T11:13:45.062Z,98474.75
2022-09-12T11:14:55.713Z,98462.13
2022-09-12T11:16:11.817Z,98462.13
2022-09-12T11:17:34.561Z,98468.59
2022-09-12T11:19:07.315Z,98463.31
2022-09-12T11:20:33.109Z,98462.56
2022-09-12T11:22:02.440Z,98455.34
2022-09-12T11:23:34.759Z,98456.81
2022-09-12T11:25:03.871Z,98454.44
2022-09-12T11:26:19.419Z,98448.28
2022-09-12T11:27:27.863Z,98450.13
2022-09-12T11:28:35.843Z,98450.47
2022-09-12T11:29:59.854Z,98445.03
2022-09-12T11:31:23.901Z,98447.66
2022-09-12T11:32:52.243Z,98446.13
2022-09-12T11:33:56.784Z,98448.66
2022-09-12T11:35:04.383Z,98449.34
2022-09-12T11:36:16.112Z,98446.25
2022-09-12T11:37:45.359Z,98444.16
2022-09-12T11:39:02.199Z,98448.03
2022-09-12T11:40:23.439Z,98443.00
2022-09-12T11:41:34.866Z,98442.63
2022-09-12T11:42:39.765Z,98442.63
2022-09-12T11:44:33.513Z,98441.63
2022-09-12T11:45:41.708Z,98437.88
2022-09-12T11:46:47.620Z,98434.66
2022-09-12T11:47:57.796Z,98432.63
2022-09-12T11:49:14.375Z,98438.47
2022-09-12T11:50:27.039Z,98434.66
2022-09-12T11:51:37.136Z,98438.84
2022-09-12T11:52:40.612Z,98432.50
2022-09-12T11:53:43.997Z,98434.22
2022-09-12T11:54:53.911Z,98434.91
2022-09-12T11:56:04.600Z,98431.50
2022-09-12T11:57:19.830Z,98430.50
2022-09-12T11:58:26.658Z,98429.66
2022-09-12T11:59:39.424Z,98430.91
2022-09-12T12:00:47.841Z,98422.41
2022-09-12T12:01:55.171Z,98435.81
2022-09-12T12:03:20.512Z,98428.06
2022-09-12T12:04:28.741Z,98424.00
2022-09-12T12:05:54.672Z,98429.97
2022-09-12T12:07:07.343Z,98425.75
2022-09-12T12:08:10.839Z,98429.03
2022-09-12T12:09:14.319Z,98434.66
2022-09-12T12:10:24.644Z,98429.97
2022-09-12T12:11:43.615Z,98423.81
2022-09-12T12:12:45.465Z,98422.56
2022-09-12T12:14:12.774Z,98427.06
2022-09-12T12:15:15.603Z,98424.00
2022-09-12T12:16:29.866Z,98416.69
2022-09-12T12:17:33.340Z,98418.94
2022-09-12T12:18:38.978Z,98414.22
2022-09-12T12:19:40.606Z,98421.25
2022-09-12T12:20:42.894Z,98412.38
2022-09-12T12:21:45.339Z,98416.16
2022-09-12T12:22:56.219Z,98408.09
2022-09-12T12:24:11.736Z,98413.41
2022-09-12T12:25:13.089Z,98409.09
2022-09-12T12:26:42.701Z,98403.34
2022-09-12T12:27:44.162Z,98406.75
2022-09-12T12:28:50.545Z,98408.75
2022-09-12T12:29:52.078Z,98408.94
2022-09-12T12:30:53.871Z,98405.34
2022-09-12T12:32:04.273Z,98404.09
2022-09-12T12:33:25.647Z,98401.00
2022-09-12T12:34:29.246Z,98398.22
2022-09-12T12:35:37.993Z,98393.53
2022-09-12T12:36:41.313Z,98398.47
2022-09-12T12:37:42.697Z,98390.34
2022-09-12T12:38:44.441Z,98393.09
2022-09-12T12:39:47.947Z,98388.56
2022-09-12T12:40:50.819Z,98393.03
2022-09-12T12:41:52.260Z,98393.94
2022-09-12T12:43:02.589Z,98393.50
2022-09-12T12:44:42.772Z,98391.94
2022-09-12T12:45:48.498Z,98390.09
2022-09-12T12:47:19.778Z,98390.34
2022-09-12T12:48:22.238Z,98390.84
2022-09-12T12:49:28.438Z,98387.91
2022-09-12T12:50:31.775Z,98389.41
2022-09-12T12:51:36.131Z,98378.44
2022-09-12T12:52:52.226Z,98386.44
2022-09-12T12:53:55.240Z,98381.09
2022-09-12T12:55:04.134Z,98384.78
2022-09-12T12:56:05.609Z,98386.97
2022-09-12T12:57:13.598Z,98382.53
2022-09-12T12:58:41.185Z,98379.25
2022-09-12T13:00:00.234Z,98382.25
2022-09-12T13:01:22.832Z,98376.75
2022-09-12T13:02:31.256Z,98384.06
2022-09-12T13:03:34.368Z,98385.75
2022-09-12T13:04:36.003Z,98386.84
2022-09-12T13:05:49.881Z,98381.72
2022-09-12T13:07:01.088Z,98381.06
2022-09-12T13:08:30.278Z,98374.59
2022-09-12T13:09:39.720Z,98377.31
2022-09-12T13:10:50.423Z,98375.50
2022-09-12T13:12:11.259Z,98378.31
2022-09-12T13:13:25.783Z,98376.81
2022-09-12T13:14:42.558Z,98372.41
2022-09-12T13:15:50.195Z,98376.50
2022-09-12T13:16:59.902Z,98371.47